sensor_id;sensor_type;location;lat;lon;timestamp;P1;durP1;ratioP1;P2;durP2;ratioP2
21099;SDS011;10708;50.824;4.408;2023-06-04T00:00:47;43.90;;;41.47;;
21099;SDS011;10708;50.824;4.408;2023-06-04T00:05:50;42.03;;;39.75;;
21099;SDS011;10708;50.824;4.408;2023-06-04T00:10:52;39.70;;;37.65;;
21099;SDS011;10708;50.824;4.408;2023-06-04T00:15:54;57.78;;;54.63;;
21099;SDS011;10708;50.824;4.408;2023-06-04T00:20:58;42.15;;;39.63;;
21099;SDS011;10708;50.824;4.408;2023-06-04T00:25:59;51.70;;;48.85;;
21099;SDS011;10708;50.824;4.408;2023-06-04T00:31:02;50.45;;;47.78;;
21099;SDS011;10708;50.824;4.408;2023-06-04T00:36:08;51.22;;;48.10;;
21099;SDS011;10708;50.824;4.408;2023-06-04T00:41:10;42.63;;;40.30;;
21099;SDS011;10708;50.824;4.408;2023-06-04T00:46:12;52.83;;;49.90;;
21099;SDS011;10708;50.824;4.408;2023-06-04T00:51:20;39.53;;;37.47;;
21099;SDS011;10708;50.824;4.408;2023-06-04T00:56:22;43.15;;;40.72;;
21099;SDS011;10708;50.824;4.408;2023-06-04T01:01:26;56.92;;;53.70;;
21099;SDS011;10708;50.824;4.408;2023-06-04T01:06:38;50.33;;;47.65;;
21099;SDS011;10708;50.824;4.408;2023-06-04T01:11:41;94.97;;;89.85;;
21099;SDS011;10708;50.824;4.408;2023-06-04T01:16:45;98.80;;;93.53;;
21099;SDS011;10708;50.824;4.408;2023-06-04T01:21:52;99.35;;;93.80;;
21099;SDS011;10708;50.824;4.408;2023-06-04T01:26:57;125.45;;;118.38;;
21099;SDS011;10708;50.824;4.408;2023-06-04T01:31:59;138.82;;;130.90;;
21099;SDS011;10708;50.824;4.408;2023-06-04T01:37:03;187.88;;;177.48;;
21099;SDS011;10708;50.824;4.408;2023-06-04T01:42:05;135.57;;;128.07;;
21099;SDS011;10708;50.824;4.408;2023-06-04T01:47:08;25.75;;;24.25;;
21099;SDS011;10708;50.824;4.408;2023-06-04T01:52:11;37.83;;;35.72;;
21099;SDS011;10708;50.824;4.408;2023-06-04T01:57:13;35.77;;;33.83;;
21099;SDS011;10708;50.824;4.408;2023-06-04T02:02:16;293.95;;;278.05;;
21099;SDS011;10708;50.824;4.408;2023-06-04T02:07:20;79.57;;;75.15;;
21099;SDS011;10708;50.824;4.408;2023-06-04T02:12:22;229.20;;;214.03;;
21099;SDS011;10708;50.824;4.408;2023-06-04T02:17:24;190.57;;;177.73;;
21099;SDS011;10708;50.824;4.408;2023-06-04T02:22:27;136.50;;;129.20;;
21099;SDS011;10708;50.824;4.408;2023-06-04T02:27:29;237.40;;;223.90;;
21099;SDS011;10708;50.824;4.408;2023-06-04T02:32:31;189.50;;;179.17;;
21099;SDS011;10708;50.824;4.408;2023-06-04T02:37:35;129.87;;;123.10;;
21099;SDS011;10708;50.824;4.408;2023-06-04T02:42:37;120.80;;;114.30;;
21099;SDS011;10708;50.824;4.408;2023-06-04T02:47:39;132.03;;;125.20;;
21099;SDS011;10708;50.824;4.408;2023-06-04T02:52:43;124.07;;;117.43;;
21099;SDS011;10708;50.824;4.408;2023-06-04T02:57:45;75.55;;;71.47;;
21099;SDS011;10708;50.824;4.408;2023-06-04T03:02:47;115.77;;;109.47;;
21099;SDS011;10708;50.824;4.408;2023-06-04T03:07:51;89.53;;;84.93;;
21099;SDS011;10708;50.824;4.408;2023-06-04T03:12:53;111.53;;;105.57;;
21099;SDS011;10708;50.824;4.408;2023-06-04T03:17:57;87.97;;;83.33;;
21099;SDS011;10708;50.824;4.408;2023-06-04T03:23:01;110.60;;;104.83;;
21099;SDS011;10708;50.824;4.408;2023-06-04T03:28:03;119.20;;;112.60;;
21099;SDS011;10708;50.824;4.408;2023-06-04T03:33:05;25.73;;;24.27;;
21099;SDS011;10708;50.824;4.408;2023-06-04T03:38:08;26.77;;;25.13;;
21099;SDS011;10708;50.824;4.408;2023-06-04T03:43:10;23.47;;;21.90;;
21099;SDS011;10708;50.824;4.408;2023-06-04T03:48:13;36.13;;;34.10;;
21099;SDS011;10708;50.824;4.408;2023-06-04T03:53:16;31.37;;;29.53;;
21099;SDS011;10708;50.824;4.408;2023-06-04T03:58:18;39.27;;;36.97;;
21099;SDS011;10708;50.824;4.408;2023-06-04T04:03:21;34.10;;;32.10;;
21099;SDS011;10708;50.824;4.408;2023-06-04T04:08:25;986.10;;;594.97;;
21099;SDS011;10708;50.824;4.408;2023-06-04T04:13:31;1197.97;;;693.43;;
21099;SDS011;10708;50.824;4.408;2023-06-04T04:18:33;1251.73;;;699.53;;
21099;SDS011;10708;50.824;4.408;2023-06-04T04:23:39;909.23;;;577.97;;
21099;SDS011;10708;50.824;4.408;2023-06-04T04:28:42;1302.37;;;718.73;;
21099;SDS011;10708;50.824;4.408;2023-06-04T04:33:44;929.53;;;566.60;;
21099;SDS011;10708;50.824;4.408;2023-06-04T04:38:48;1225.60;;;696.10;;
21099;SDS011;10708;50.824;4.408;2023-06-04T04:43:54;915.73;;;598.70;;
21099;SDS011;10708;50.824;4.408;2023-06-04T04:49:04;917.67;;;594.97;;
21099;SDS011;10708;50.824;4.408;2023-06-04T04:54:07;1006.23;;;614.17;;
21099;SDS011;10708;50.824;4.408;2023-06-04T04:59:09;1329.73;;;742.67;;
21099;SDS011;10708;50.824;4.408;2023-06-04T05:04:11;855.83;;;583.00;;
21099;SDS011;10708;50.824;4.408;2023-06-04T05:09:15;1278.80;;;723.70;;
21099;SDS011;10708;50.824;4.408;2023-06-04T05:14:17;1270.00;;;743.97;;
21099;SDS011;10708;50.824;4.408;2023-06-04T05:19:19;942.47;;;602.47;;
21099;SDS011;10708;50.824;4.408;2023-06-04T05:24:22;1222.10;;;711.33;;
21099;SDS011;10708;50.824;4.408;2023-06-04T05:29:25;826.90;;;561.77;;
21099;SDS011;10708;50.824;4.408;2023-06-04T05:34:27;1242.47;;;741.00;;
21099;SDS011;10708;50.824;4.408;2023-06-04T05:39:31;1218.07;;;695.03;;
21099;SDS011;10708;50.824;4.408;2023-06-04T05:44:33;1274.60;;;721.03;;
21099;SDS011;10708;50.824;4.408;2023-06-04T05:49:35;1464.30;;;766.40;;
21099;SDS011;10708;50.824;4.408;2023-06-04T05:54:38;1026.63;;;635.17;;
21099;SDS011;10708;50.824;4.408;2023-06-04T05:59:40;1450.43;;;760.17;;
21099;SDS011;10708;50.824;4.408;2023-06-04T06:04:42;1338.97;;;733.37;;
21099;SDS011;10708;50.824;4.408;2023-06-04T06:09:46;1346.93;;;750.07;;
21099;SDS011;10708;50.824;4.408;2023-06-04T06:14:48;1255.80;;;714.27;;
21099;SDS011;10708;50.824;4.408;2023-06-04T06:19:50;1108.50;;;688.33;;
21099;SDS011;10708;50.824;4.408;2023-06-04T06:24:53;1241.47;;;708.10;;
21099;SDS011;10708;50.824;4.408;2023-06-04T06:29:55;1248.87;;;717.73;;
21099;SDS011;10708;50.824;4.408;2023-06-04T06:34:57;1188.07;;;687.00;;
21099;SDS011;10708;50.824;4.408;2023-06-04T06:40:01;1049.20;;;650.23;;
21099;SDS011;10708;50.824;4.408;2023-06-04T06:45:04;1122.33;;;648.73;;
21099;SDS011;10708;50.824;4.408;2023-06-04T06:50:07;980.87;;;584.63;;
21099;SDS011;10708;50.824;4.408;2023-06-04T06:55:12;913.93;;;503.93;;
21099;SDS011;10708;50.824;4.408;2023-06-04T07:00:14;748.10;;;419.00;;
21099;SDS011;10708;50.824;4.408;2023-06-04T07:05:17;738.30;;;428.80;;
21099;SDS011;10708;50.824;4.408;2023-06-04T07:10:20;816.73;;;466.57;;
21099;SDS011;10708;50.824;4.408;2023-06-04T07:15:22;799.63;;;437.97;;
21099;SDS011;10708;50.824;4.408;2023-06-04T07:20:24;760.03;;;418.23;;
21099;SDS011;10708;50.824;4.408;2023-06-04T07:25:28;780.87;;;431.37;;
21099;SDS011;10708;50.824;4.408;2023-06-04T07:30:30;757.07;;;398.37;;
21099;SDS011;10708;50.824;4.408;2023-06-04T07:35:32;754.37;;;392.67;;
21099;SDS011;10708;50.824;4.408;2023-06-04T07:40:36;754.97;;;390.33;;
21099;SDS011;10708;50.824;4.408;2023-06-04T07:45:38;794.13;;;426.53;;
21099;SDS011;10708;50.824;4.408;2023-06-04T07:50:40;804.97;;;431.50;;
21099;SDS011;10708;50.824;4.408;2023-06-04T07:55:43;743.53;;;375.20;;
21099;SDS011;10708;50.824;4.408;2023-06-04T08:00:45;742.90;;;373.70;;
21099;SDS011;10708;50.824;4.408;2023-06-04T08:05:48;758.50;;;376.87;;
21099;SDS011;10708;50.824;4.408;2023-06-04T08:10:51;742.43;;;381.80;;
21099;SDS011;10708;50.824;4.408;2023-06-04T08:15:53;722.73;;;346.57;;
21099;SDS011;10708;50.824;4.408;2023-06-04T08:20:55;80.25;;;75.53;;
21099;SDS011;10708;50.824;4.408;2023-06-04T08:25:59;68.53;;;64.70;;
21099;SDS011;10708;50.824;4.408;2023-06-04T08:31:00;730.83;;;330.20;;
21099;SDS011;10708;50.824;4.408;2023-06-04T08:36:02;711.43;;;317.00;;
21099;SDS011;10708;50.824;4.408;2023-06-04T08:41:09;705.70;;;307.43;;
21099;SDS011;10708;50.824;4.408;2023-06-04T08:46:16;34.53;;;32.63;;
21099;SDS011;10708;50.824;4.408;2023-06-04T08:51:20;37.80;;;35.50;;
21099;SDS011;10708;50.824;4.408;2023-06-04T08:56:24;726.30;;;347.70;;
21099;SDS011;10708;50.824;4.408;2023-06-04T09:01:29;716.93;;;332.47;;
21099;SDS011;10708;50.824;4.408;2023-06-04T09:06:32;709.17;;;312.87;;
21099;SDS011;10708;50.824;4.408;2023-06-04T09:11:41;695.10;;;300.13;;
21099;SDS011;10708;50.824;4.408;2023-06-04T09:16:48;712.90;;;313.70;;
21099;SDS011;10708;50.824;4.408;2023-06-04T09:21:52;708.50;;;319.23;;
21099;SDS011;10708;50.824;4.408;2023-06-04T09:26:58;700.47;;;300.47;;
21099;SDS011;10708;50.824;4.408;2023-06-04T09:32:11;701.43;;;303.27;;
21099;SDS011;10708;50.824;4.408;2023-06-04T09:37:13;693.07;;;293.57;;
21099;SDS011;10708;50.824;4.408;2023-06-04T09:42:19;694.67;;;297.27;;
21099;SDS011;10708;50.824;4.408;2023-06-04T09:47:21;699.23;;;295.40;;
21099;SDS011;10708;50.824;4.408;2023-06-04T09:52:32;696.20;;;291.53;;
21099;SDS011;10708;50.824;4.408;2023-06-04T09:57:37;695.50;;;280.80;;
21099;SDS011;10708;50.824;4.408;2023-06-04T10:02:41;699.83;;;274.57;;
21099;SDS011;10708;50.824;4.408;2023-06-04T10:07:45;716.07;;;287.93;;
21099;SDS011;10708;50.824;4.408;2023-06-04T10:12:49;738.37;;;321.23;;
21099;SDS011;10708;50.824;4.408;2023-06-04T10:17:54;752.90;;;339.17;;
21099;SDS011;10708;50.824;4.408;2023-06-04T10:22:57;758.27;;;338.97;;
21099;SDS011;10708;50.824;4.408;2023-06-04T10:28:01;766.43;;;361.57;;
21099;SDS011;10708;50.824;4.408;2023-06-04T10:33:04;787.77;;;389.10;;
21099;SDS011;10708;50.824;4.408;2023-06-04T10:38:07;810.73;;;435.67;;
21099;SDS011;10708;50.824;4.408;2023-06-04T10:43:12;846.70;;;514.63;;
21099;SDS011;10708;50.824;4.408;2023-06-04T10:48:16;844.20;;;503.20;;
21099;SDS011;10708;50.824;4.408;2023-06-04T10:53:18;877.50;;;573.47;;
21099;SDS011;10708;50.824;4.408;2023-06-04T10:58:31;902.93;;;648.17;;
21099;SDS011;10708;50.824;4.408;2023-06-04T11:03:36;111.25;;;105.45;;
21099;SDS011;10708;50.824;4.408;2023-06-04T11:08:39;132.57;;;125.65;;
21099;SDS011;10708;50.824;4.408;2023-06-04T11:13:42;96.05;;;90.40;;
21099;SDS011;10708;50.824;4.408;2023-06-04T11:18:53;97.32;;;92.30;;
21099;SDS011;10708;50.824;4.408;2023-06-04T11:23:57;105.53;;;100.05;;
21099;SDS011;10708;50.824;4.408;2023-06-04T11:29:02;96.80;;;91.88;;
21099;SDS011;10708;50.824;4.408;2023-06-04T11:34:07;116.82;;;110.70;;
21099;SDS011;10708;50.824;4.408;2023-06-04T11:39:09;81.22;;;76.78;;
21099;SDS011;10708;50.824;4.408;2023-06-04T11:44:14;94.70;;;89.80;;
21099;SDS011;10708;50.824;4.408;2023-06-04T11:49:20;92.03;;;87.18;;
21099;SDS011;10708;50.824;4.408;2023-06-04T11:54:22;83.68;;;79.45;;
21099;SDS011;10708;50.824;4.408;2023-06-04T11:59:26;77.55;;;73.50;;
21099;SDS011;10708;50.824;4.408;2023-06-04T12:04:29;82.82;;;78.45;;
21099;SDS011;10708;50.824;4.408;2023-06-04T12:09:32;113.10;;;106.75;;
21099;SDS011;10708;50.824;4.408;2023-06-04T12:14:39;110.55;;;104.88;;
21099;SDS011;10708;50.824;4.408;2023-06-04T12:19:46;70.40;;;66.68;;
21099;SDS011;10708;50.824;4.408;2023-06-04T12:24:49;71.47;;;67.75;;
21099;SDS011;10708;50.824;4.408;2023-06-04T12:29:58;84.85;;;80.60;;
21099;SDS011;10708;50.824;4.408;2023-06-04T12:35:02;87.97;;;83.05;;
21099;SDS011;10708;50.824;4.408;2023-06-04T12:40:05;87.43;;;82.88;;
21099;SDS011;10708;50.824;4.408;2023-06-04T12:45:10;78.10;;;73.97;;
21099;SDS011;10708;50.824;4.408;2023-06-04T12:50:15;72.40;;;68.63;;
21099;SDS011;10708;50.824;4.408;2023-06-04T12:55:18;168.43;;;151.35;;
21099;SDS011;10708;50.824;4.408;2023-06-04T13:00:22;141.48;;;133.93;;
21099;SDS011;10708;50.824;4.408;2023-06-04T13:05:24;111.35;;;105.38;;
21099;SDS011;10708;50.824;4.408;2023-06-04T13:10:26;79.47;;;75.18;;
21099;SDS011;10708;50.824;4.408;2023-06-04T13:15:30;94.57;;;89.70;;
21099;SDS011;10708;50.824;4.408;2023-06-04T13:20:32;104.45;;;98.95;;
21099;SDS011;10708;50.824;4.408;2023-06-04T13:25:34;99.28;;;94.18;;
21099;SDS011;10708;50.824;4.408;2023-06-04T13:30:38;89.68;;;85.07;;
21099;SDS011;10708;50.824;4.408;2023-06-04T13:35:40;89.05;;;84.40;;
21099;SDS011;10708;50.824;4.408;2023-06-04T13:40:44;87.50;;;82.70;;
21099;SDS011;10708;50.824;4.408;2023-06-04T13:45:48;125.32;;;118.50;;
21099;SDS011;10708;50.824;4.408;2023-06-04T13:50:50;130.45;;;123.60;;
21099;SDS011;10708;50.824;4.408;2023-06-04T13:55:52;91.57;;;86.82;;
21099;SDS011;10708;50.824;4.408;2023-06-04T14:00:59;75.95;;;72.03;;
21099;SDS011;10708;50.824;4.408;2023-06-04T14:06:01;74.07;;;70.25;;
21099;SDS011;10708;50.824;4.408;2023-06-04T14:11:03;90.95;;;86.15;;
21099;SDS011;10708;50.824;4.408;2023-06-04T14:16:07;75.82;;;71.80;;
21099;SDS011;10708;50.824;4.408;2023-06-04T14:21:09;96.65;;;91.22;;
21099;SDS011;10708;50.824;4.408;2023-06-04T14:26:11;84.72;;;80.22;;
21099;SDS011;10708;50.824;4.408;2023-06-04T14:31:14;99.78;;;94.45;;
21099;SDS011;10708;50.824;4.408;2023-06-04T14:36:17;126.65;;;119.70;;
21099;SDS011;10708;50.824;4.408;2023-06-04T14:41:19;153.90;;;145.43;;
21099;SDS011;10708;50.824;4.408;2023-06-04T14:46:22;149.98;;;142.23;;
21099;SDS011;10708;50.824;4.408;2023-06-04T14:51:25;79.82;;;75.38;;
21099;SDS011;10708;50.824;4.408;2023-06-04T14:56:27;79.57;;;75.53;;
21099;SDS011;10708;50.824;4.408;2023-06-04T15:01:32;81.65;;;77.07;;
21099;SDS011;10708;50.824;4.408;2023-06-04T15:06:34;176.80;;;167.13;;
21099;SDS011;10708;50.824;4.408;2023-06-04T15:11:36;103.93;;;98.50;;
21099;SDS011;10708;50.824;4.408;2023-06-04T15:16:39;90.78;;;85.80;;
21099;SDS011;10708;50.824;4.408;2023-06-04T15:21:45;88.63;;;83.43;;
21099;SDS011;10708;50.824;4.408;2023-06-04T15:26:51;71.90;;;67.93;;
21099;SDS011;10708;50.824;4.408;2023-06-04T15:31:55;82.65;;;78.43;;
21099;SDS011;10708;50.824;4.408;2023-06-04T15:36:57;98.30;;;93.30;;
21099;SDS011;10708;50.824;4.408;2023-06-04T15:41:59;93.93;;;89.20;;
21099;SDS011;10708;50.824;4.408;2023-06-04T15:47:05;89.60;;;84.78;;
21099;SDS011;10708;50.824;4.408;2023-06-04T15:52:07;106.10;;;100.57;;
21099;SDS011;10708;50.824;4.408;2023-06-04T15:57:09;89.00;;;84.50;;
21099;SDS011;10708;50.824;4.408;2023-06-04T16:02:13;188.60;;;178.02;;
21099;SDS011;10708;50.824;4.408;2023-06-04T16:07:15;128.02;;;120.93;;
21099;SDS011;10708;50.824;4.408;2023-06-04T16:12:17;90.93;;;86.32;;
21099;SDS011;10708;50.824;4.408;2023-06-04T16:17:21;84.35;;;80.03;;
21099;SDS011;10708;50.824;4.408;2023-06-04T16:22:23;90.47;;;85.30;;
21099;SDS011;10708;50.824;4.408;2023-06-04T16:27:25;98.60;;;93.53;;
21099;SDS011;10708;50.824;4.408;2023-06-04T16:32:29;108.45;;;102.90;;
21099;SDS011;10708;50.824;4.408;2023-06-04T16:37:31;88.47;;;83.43;;
21099;SDS011;10708;50.824;4.408;2023-06-04T16:42:33;115.20;;;109.20;;
21099;SDS011;10708;50.824;4.408;2023-06-04T16:47:37;140.00;;;132.80;;
21099;SDS011;10708;50.824;4.408;2023-06-04T16:52:41;106.57;;;101.13;;
21099;SDS011;10708;50.824;4.408;2023-06-04T16:57:43;114.25;;;108.20;;
21099;SDS011;10708;50.824;4.408;2023-06-04T17:02:47;112.45;;;106.72;;
21099;SDS011;10708;50.824;4.408;2023-06-04T17:07:49;106.63;;;101.13;;
21099;SDS011;10708;50.824;4.408;2023-06-04T17:12:51;107.80;;;102.35;;
21099;SDS011;10708;50.824;4.408;2023-06-04T17:17:54;131.35;;;124.50;;
21099;SDS011;10708;50.824;4.408;2023-06-04T17:23:00;132.98;;;126.00;;
21099;SDS011;10708;50.824;4.408;2023-06-04T17:28:02;93.57;;;88.72;;
21099;SDS011;10708;50.824;4.408;2023-06-04T17:33:05;90.13;;;85.35;;
21099;SDS011;10708;50.824;4.408;2023-06-04T17:38:08;138.68;;;131.57;;
21099;SDS011;10708;50.824;4.408;2023-06-04T17:43:10;112.00;;;106.07;;
21099;SDS011;10708;50.824;4.408;2023-06-04T17:48:13;87.25;;;82.55;;
21099;SDS011;10708;50.824;4.408;2023-06-04T17:53:17;93.57;;;88.82;;
21099;SDS011;10708;50.824;4.408;2023-06-04T17:58:19;141.65;;;133.93;;
21099;SDS011;10708;50.824;4.408;2023-06-04T18:03:24;96.10;;;91.20;;
21099;SDS011;10708;50.824;4.408;2023-06-04T18:08:26;90.35;;;85.55;;
21099;SDS011;10708;50.824;4.408;2023-06-04T18:13:28;105.35;;;99.88;;
21099;SDS011;10708;50.824;4.408;2023-06-04T18:18:32;98.85;;;93.90;;
21099;SDS011;10708;50.824;4.408;2023-06-04T18:23:34;119.38;;;112.88;;
21099;SDS011;10708;50.824;4.408;2023-06-04T18:28:36;100.53;;;95.30;;
21099;SDS011;10708;50.824;4.408;2023-06-04T18:33:49;97.00;;;91.90;;
21099;SDS011;10708;50.824;4.408;2023-06-04T18:38:52;144.38;;;136.88;;
21099;SDS011;10708;50.824;4.408;2023-06-04T18:43:55;102.15;;;96.82;;
21099;SDS011;10708;50.824;4.408;2023-06-04T18:48:58;113.45;;;107.65;;
21099;SDS011;10708;50.824;4.408;2023-06-04T18:54:01;111.43;;;105.40;;
21099;SDS011;10708;50.824;4.408;2023-06-04T18:59:04;98.22;;;93.03;;
21099;SDS011;10708;50.824;4.408;2023-06-04T19:04:07;98.10;;;92.93;;
21099;SDS011;10708;50.824;4.408;2023-06-04T19:09:12;101.43;;;96.03;;
21099;SDS011;10708;50.824;4.408;2023-06-04T19:14:14;114.68;;;108.88;;
21099;SDS011;10708;50.824;4.408;2023-06-04T19:19:18;106.85;;;101.38;;
21099;SDS011;10708;50.824;4.408;2023-06-04T19:24:20;228.55;;;216.90;;
21099;SDS011;10708;50.824;4.408;2023-06-04T19:29:22;323.45;;;306.42;;
21099;SDS011;10708;50.824;4.408;2023-06-04T19:34:26;473.20;;;444.48;;
21099;SDS011;10708;50.824;4.408;2023-06-04T19:39:29;514.72;;;483.00;;
21099;SDS011;10708;50.824;4.408;2023-06-04T19:44:31;616.40;;;573.58;;
21099;SDS011;10708;50.824;4.408;2023-06-04T19:49:34;548.97;;;513.88;;
21099;SDS011;10708;50.824;4.408;2023-06-04T19:54:36;606.10;;;564.67;;
21099;SDS011;10708;50.824;4.408;2023-06-04T19:59:38;599.88;;;560.22;;
21099;SDS011;10708;50.824;4.408;2023-06-04T20:04:42;489.65;;;461.08;;
21099;SDS011;10708;50.824;4.408;2023-06-04T20:09:45;430.98;;;407.05;;
21099;SDS011;10708;50.824;4.408;2023-06-04T20:14:47;361.20;;;341.17;;
21099;SDS011;10708;50.824;4.408;2023-06-04T20:19:51;388.83;;;367.52;;
21099;SDS011;10708;50.824;4.408;2023-06-04T20:24:54;531.38;;;474.23;;
21099;SDS011;10708;50.824;4.408;2023-06-04T20:29:56;413.63;;;390.63;;
21099;SDS011;10708;50.824;4.408;2023-06-04T20:34:59;418.58;;;395.20;;
21099;SDS011;10708;50.824;4.408;2023-06-04T20:40:01;549.35;;;497.17;;
21099;SDS011;10708;50.824;4.408;2023-06-04T20:45:05;434.35;;;409.95;;
21099;SDS011;10708;50.824;4.408;2023-06-04T20:50:10;440.33;;;415.52;;
21099;SDS011;10708;50.824;4.408;2023-06-04T20:55:12;413.80;;;390.85;;
21099;SDS011;10708;50.824;4.408;2023-06-04T21:00:16;449.33;;;424.25;;
21099;SDS011;10708;50.824;4.408;2023-06-04T21:05:20;415.42;;;392.65;;
21099;SDS011;10708;50.824;4.408;2023-06-04T21:10:22;408.80;;;386.25;;
21099;SDS011;10708;50.824;4.408;2023-06-04T21:15:24;376.27;;;355.80;;
21099;SDS011;10708;50.824;4.408;2023-06-04T21:20:27;394.90;;;373.13;;
21099;SDS011;10708;50.824;4.408;2023-06-04T21:25:29;446.85;;;421.83;;
21099;SDS011;10708;50.824;4.408;2023-06-04T21:30:31;447.00;;;422.20;;
21099;SDS011;10708;50.824;4.408;2023-06-04T21:35:35;376.02;;;355.90;;
21099;SDS011;10708;50.824;4.408;2023-06-04T21:40:37;407.65;;;384.80;;
21099;SDS011;10708;50.824;4.408;2023-06-04T21:45:40;316.52;;;300.13;;
21099;SDS011;10708;50.824;4.408;2023-06-04T21:50:43;298.27;;;282.60;;
21099;SDS011;10708;50.824;4.408;2023-06-04T21:55:45;343.75;;;324.73;;
21099;SDS011;10708;50.824;4.408;2023-06-04T22:00:47;247.43;;;234.73;;
21099;SDS011;10708;50.824;4.408;2023-06-04T22:05:50;330.95;;;312.38;;
21099;SDS011;10708;50.824;4.408;2023-06-04T22:10:52;180.02;;;170.75;;
21099;SDS011;10708;50.824;4.408;2023-06-04T22:15:54;161.40;;;152.95;;
21099;SDS011;10708;50.824;4.408;2023-06-04T22:20:58;1148.50;;;660.37;;
21099;SDS011;10708;50.824;4.408;2023-06-04T22:26:00;1265.47;;;712.27;;
21099;SDS011;10708;50.824;4.408;2023-06-04T22:31:02;1256.57;;;722.77;;
21099;SDS011;10708;50.824;4.408;2023-06-04T22:36:06;1328.93;;;744.97;;
21099;SDS011;10708;50.824;4.408;2023-06-04T22:41:08;1383.97;;;750.47;;
21099;SDS011;10708;50.824;4.408;2023-06-04T22:46:10;1174.50;;;673.77;;
21099;SDS011;10708;50.824;4.408;2023-06-04T22:51:13;1290.43;;;725.00;;
21099;SDS011;10708;50.824;4.408;2023-06-04T22:56:17;1019.27;;;630.83;;
21099;SDS011;10708;50.824;4.408;2023-06-04T23:01:19;1334.77;;;728.37;;
21099;SDS011;10708;50.824;4.408;2023-06-04T23:06:23;1254.33;;;714.50;;
21099;SDS011;10708;50.824;4.408;2023-06-04T23:11:28;1451.20;;;774.97;;
21099;SDS011;10708;50.824;4.408;2023-06-04T23:16:30;1421.90;;;760.83;;
21099;SDS011;10708;50.824;4.408;2023-06-04T23:21:33;1315.90;;;673.57;;
21099;SDS011;10708;50.824;4.408;2023-06-04T23:26:37;978.20;;;602.63;;
21099;SDS011;10708;50.824;4.408;2023-06-04T23:31:39;857.77;;;554.40;;
21099;SDS011;10708;50.824;4.408;2023-06-04T23:36:42;857.10;;;554.20;;
21099;SDS011;10708;50.824;4.408;2023-06-04T23:41:44;998.93;;;623.53;;
21099;SDS011;10708;50.824;4.408;2023-06-04T23:46:46;1331.87;;;763.93;;
21099;SDS011;10708;50.824;4.408;2023-06-04T23:51:49;1999.90;;;988.30;;
21099;SDS011;10708;50.824;4.408;2023-06-04T23:56:51;1999.90;;;958.60;;
